sensor_id;sensor_type;location;lat;lon;timestamp;pressure;altitude;pressure_sealevel;temperature;humidity
60920;BME280;59039;52.108;19.942;2023-02-13T00:01:42;102447.52;;;4.59;89.02
60920;BME280;59039;52.108;19.942;2023-02-13T00:04:10;102434.25;;;4.58;89.11
60920;BME280;59039;52.108;19.942;2023-02-13T00:06:41;102426.11;;;4.60;89.57
60920;BME280;59039;52.108;19.942;2023-02-13T00:09:17;102418.25;;;4.59;89.45
60920;BME280;59039;52.108;19.942;2023-02-13T00:11:58;102415.57;;;4.59;89.54
60920;BME280;59039;52.108;19.942;2023-02-13T00:14:39;102409.36;;;4.57;89.37
60920;BME280;59039;52.108;19.942;2023-02-13T00:17:08;102408.14;;;4.56;89.36
60920;BME280;59039;52.108;19.942;2023-02-13T00:19:36;102412.58;;;4.54;89.11
60920;BME280;59039;52.108;19.942;2023-02-13T00:22:04;102417.84;;;4.52;88.99
60920;BME280;59039;52.108;19.942;2023-02-13T00:24:29;102418.56;;;4.52;89.45
60920;BME280;59039;52.108;19.942;2023-02-13T00:26:58;102423.93;;;4.52;89.53
60920;BME280;59039;52.108;19.942;2023-02-13T00:29:29;102426.59;;;4.53;89.55
60920;BME280;59039;52.108;19.942;2023-02-13T00:31:54;102423.77;;;4.52;89.48
60920;BME280;59039;52.108;19.942;2023-02-13T00:34:46;102426.29;;;4.52;89.47
60920;BME280;59039;52.108;19.942;2023-02-13T00:39:52;102424.67;;;4.52;89.33
60920;BME280;59039;52.108;19.942;2023-02-13T00:42:18;102422.10;;;4.53;89.73
60920;BME280;59039;52.108;19.942;2023-02-13T00:45:13;102421.77;;;4.52;89.36
60920;BME280;59039;52.108;19.942;2023-02-13T00:48:08;102420.52;;;4.52;89.26
60920;BME280;59039;52.108;19.942;2023-02-13T00:50:49;102417.48;;;4.52;89.39
60920;BME280;59039;52.108;19.942;2023-02-13T00:53:38;102417.34;;;4.52;89.62
60920;BME280;59039;52.108;19.942;2023-02-13T00:56:07;102412.53;;;4.50;89.48
60920;BME280;59039;52.108;19.942;2023-02-13T00:58:32;102404.42;;;4.51;89.40
60920;BME280;59039;52.108;19.942;2023-02-13T01:01:29;102402.02;;;4.53;89.90
60920;BME280;59039;52.108;19.942;2023-02-13T01:04:12;102400.98;;;4.51;89.60
60920;BME280;59039;52.108;19.942;2023-02-13T01:09:25;102402.07;;;4.51;89.97
60920;BME280;59039;52.108;19.942;2023-02-13T01:12:07;102404.23;;;4.51;89.98
60920;BME280;59039;52.108;19.942;2023-02-13T01:14:52;102401.75;;;4.50;89.64
60920;BME280;59039;52.108;19.942;2023-02-13T01:20:02;102397.94;;;4.52;89.97
60920;BME280;59039;52.108;19.942;2023-02-13T01:22:30;102397.77;;;4.51;89.88
60920;BME280;59039;52.108;19.942;2023-02-13T01:27:34;102395.15;;;4.54;89.75
60920;BME280;59039;52.108;19.942;2023-02-13T01:30:40;102394.23;;;4.54;90.10
60920;BME280;59039;52.108;19.942;2023-02-13T01:33:30;102391.46;;;4.52;89.91
60920;BME280;59039;52.108;19.942;2023-02-13T01:35:58;102392.52;;;4.52;89.61
60920;BME280;59039;52.108;19.942;2023-02-13T01:38:45;102392.64;;;4.54;89.87
60920;BME280;59039;52.108;19.942;2023-02-13T01:50:02;102387.48;;;4.57;89.98
60920;BME280;59039;52.108;19.942;2023-02-13T01:52:56;102388.39;;;4.56;89.92
60920;BME280;59039;52.108;19.942;2023-02-13T01:55:49;102392.52;;;4.56;89.78
60920;BME280;59039;52.108;19.942;2023-02-13T01:58:23;102389.67;;;4.56;89.75
60920;BME280;59039;52.108;19.942;2023-02-13T02:01:18;102389.80;;;4.56;89.90
60920;BME280;59039;52.108;19.942;2023-02-13T02:03:46;102388.02;;;4.57;90.08
60920;BME280;59039;52.108;19.942;2023-02-13T02:09:38;102388.46;;;4.55;89.88
60920;BME280;59039;52.108;19.942;2023-02-13T02:15:19;102387.32;;;4.56;89.70
60920;BME280;59039;52.108;19.942;2023-02-13T02:17:53;102389.78;;;4.58;89.81
60920;BME280;59039;52.108;19.942;2023-02-13T02:26:54;102388.91;;;4.61;89.72
60920;BME280;59039;52.108;19.942;2023-02-13T02:30:04;102389.41;;;4.62;89.30
60920;BME280;59039;52.108;19.942;2023-02-13T02:32:53;102383.99;;;4.63;89.63
60920;BME280;59039;52.108;19.942;2023-02-13T02:38:41;102382.27;;;4.65;89.98
60920;BME280;59039;52.108;19.942;2023-02-13T02:47:23;102383.11;;;4.66;89.61
60920;BME280;59039;52.108;19.942;2023-02-13T02:53:03;102390.02;;;4.68;89.52
60920;BME280;59039;52.108;19.942;2023-02-13T02:58:54;102395.80;;;4.72;89.45
60920;BME280;59039;52.108;19.942;2023-02-13T03:02:02;102400.41;;;4.73;89.74
60920;BME280;59039;52.108;19.942;2023-02-13T03:04:35;102401.16;;;4.72;89.27
60920;BME280;59039;52.108;19.942;2023-02-13T03:07:27;102401.08;;;4.74;89.44
60920;BME280;59039;52.108;19.942;2023-02-13T03:09:57;102404.98;;;4.75;89.05
60920;BME280;59039;52.108;19.942;2023-02-13T03:12:51;102410.34;;;4.76;88.91
60920;BME280;59039;52.108;19.942;2023-02-13T03:15:17;102410.48;;;4.77;89.03
60920;BME280;59039;52.108;19.942;2023-02-13T03:18:14;102413.50;;;4.77;88.95
60920;BME280;59039;52.108;19.942;2023-02-13T03:21:07;102415.84;;;4.77;88.74
60920;BME280;59039;52.108;19.942;2023-02-13T03:27:30;102425.06;;;4.80;89.48
60920;BME280;59039;52.108;19.942;2023-02-13T03:30:50;102422.75;;;4.79;89.38
60920;BME280;59039;52.108;19.942;2023-02-13T03:47:06;102409.59;;;4.77;88.53
60920;BME280;59039;52.108;19.942;2023-02-13T03:49:49;102403.85;;;4.77;88.97
60920;BME280;59039;52.108;19.942;2023-02-13T03:52:34;102406.15;;;4.77;89.01
60920;BME280;59039;52.108;19.942;2023-02-13T03:57:45;102410.50;;;4.80;89.34
60920;BME280;59039;52.108;19.942;2023-02-13T04:00:37;102410.77;;;4.78;88.78
60920;BME280;59039;52.108;19.942;2023-02-13T04:06:23;102408.73;;;4.80;88.80
60920;BME280;59039;52.108;19.942;2023-02-13T04:08:59;102405.10;;;4.80;88.61
60920;BME280;59039;52.108;19.942;2023-02-13T04:12:14;102404.73;;;4.80;88.59
60920;BME280;59039;52.108;19.942;2023-02-13T04:17:31;102405.31;;;4.80;88.22
60920;BME280;59039;52.108;19.942;2023-02-13T04:19:58;102397.41;;;4.80;88.71
60920;BME280;59039;52.108;19.942;2023-02-13T04:22:38;102392.59;;;4.79;88.37
60920;BME280;59039;52.108;19.942;2023-02-13T04:25:16;102396.46;;;4.81;88.56
60920;BME280;59039;52.108;19.942;2023-02-13T04:28:02;102397.52;;;4.81;88.42
60920;BME280;59039;52.108;19.942;2023-02-13T04:30:40;102396.19;;;4.83;88.58
60920;BME280;59039;52.108;19.942;2023-02-13T04:36:17;102404.41;;;4.84;88.28
60920;BME280;59039;52.108;19.942;2023-02-13T04:38:57;102407.05;;;4.85;88.40
60920;BME280;59039;52.108;19.942;2023-02-13T04:42:03;102409.33;;;4.86;88.96
60920;BME280;59039;52.108;19.942;2023-02-13T04:45:09;102414.48;;;4.87;88.44
60920;BME280;59039;52.108;19.942;2023-02-13T04:53:16;102416.61;;;4.88;87.81
60920;BME280;59039;52.108;19.942;2023-02-13T04:56:21;102416.80;;;4.88;87.79
60920;BME280;59039;52.108;19.942;2023-02-13T05:02:06;102422.09;;;4.86;87.69
60920;BME280;59039;52.108;19.942;2023-02-13T05:04:54;102422.82;;;4.86;87.81
60920;BME280;59039;52.108;19.942;2023-02-13T05:10:27;102419.11;;;4.88;88.01
60920;BME280;59039;52.108;19.942;2023-02-13T05:12:56;102416.73;;;4.90;88.55
60920;BME280;59039;52.108;19.942;2023-02-13T05:16:03;102419.10;;;4.89;88.59
60920;BME280;59039;52.108;19.942;2023-02-13T05:18:30;102420.59;;;4.88;88.03
60920;BME280;59039;52.108;19.942;2023-02-13T05:21:07;102420.75;;;4.88;88.46
60920;BME280;59039;52.108;19.942;2023-02-13T05:26:18;102420.88;;;4.85;88.65
60920;BME280;59039;52.108;19.942;2023-02-13T05:29:13;102422.09;;;4.86;89.18
60920;BME280;59039;52.108;19.942;2023-02-13T05:32:26;102421.77;;;4.85;88.70
60920;BME280;59039;52.108;19.942;2023-02-13T05:34:34;102427.34;;;4.85;88.37
60920;BME280;59039;52.108;19.942;2023-02-13T05:37:00;102427.39;;;4.84;88.18
60920;BME280;59039;52.108;19.942;2023-02-13T05:39:29;102423.76;;;4.85;89.09
60920;BME280;59039;52.108;19.942;2023-02-13T05:42:03;102422.18;;;4.84;89.52
60920;BME280;59039;52.108;19.942;2023-02-13T05:44:41;102420.23;;;4.83;89.28
60920;BME280;59039;52.108;19.942;2023-02-13T05:47:15;102417.69;;;4.84;89.56
60920;BME280;59039;52.108;19.942;2023-02-13T05:49:51;102420.80;;;4.83;89.31
60920;BME280;59039;52.108;19.942;2023-02-13T05:52:38;102414.91;;;4.82;89.15
60920;BME280;59039;52.108;19.942;2023-02-13T05:55:07;102417.27;;;4.82;89.17
60920;BME280;59039;52.108;19.942;2023-02-13T05:57:59;102412.79;;;4.81;89.25
60920;BME280;59039;52.108;19.942;2023-02-13T06:00:45;102413.34;;;4.81;88.94
60920;BME280;59039;52.108;19.942;2023-02-13T06:03:13;102410.92;;;4.79;88.70
60920;BME280;59039;52.108;19.942;2023-02-13T06:06:07;102412.96;;;4.77;88.78
60920;BME280;59039;52.108;19.942;2023-02-13T06:08:32;102416.59;;;4.77;88.58
60920;BME280;59039;52.108;19.942;2023-02-13T06:10:57;102420.60;;;4.75;88.71
60920;BME280;59039;52.108;19.942;2023-02-13T06:13:32;102424.17;;;4.76;88.61
60920;BME280;59039;52.108;19.942;2023-02-13T06:16:07;102424.52;;;4.76;88.48
60920;BME280;59039;52.108;19.942;2023-02-13T06:18:54;102424.83;;;4.77;88.95
60920;BME280;59039;52.108;19.942;2023-02-13T06:21:22;102426.59;;;4.78;88.40
60920;BME280;59039;52.108;19.942;2023-02-13T06:23:53;102427.69;;;4.77;88.61
60920;BME280;59039;52.108;19.942;2023-02-13T06:26:18;102425.20;;;4.76;88.87
60920;BME280;59039;52.108;19.942;2023-02-13T06:28:44;102426.49;;;4.76;88.76
60920;BME280;59039;52.108;19.942;2023-02-13T06:31:32;102425.02;;;4.77;88.91
60920;BME280;59039;52.108;19.942;2023-02-13T06:36:44;102427.94;;;4.76;87.54
60920;BME280;59039;52.108;19.942;2023-02-13T06:39:09;102429.92;;;4.76;87.84
60920;BME280;59039;52.108;19.942;2023-02-13T06:41:44;102431.91;;;4.75;87.65
60920;BME280;59039;52.108;19.942;2023-02-13T06:44:11;102429.88;;;4.76;87.44
60920;BME280;59039;52.108;19.942;2023-02-13T06:47:09;102429.67;;;4.77;87.32
60920;BME280;59039;52.108;19.942;2023-02-13T06:49:37;102428.59;;;4.77;87.17
60920;BME280;59039;52.108;19.942;2023-02-13T06:52:26;102428.55;;;4.78;87.24
60920;BME280;59039;52.108;19.942;2023-02-13T06:54:50;102429.44;;;4.78;86.92
60920;BME280;59039;52.108;19.942;2023-02-13T06:57:23;102433.52;;;4.80;87.79
60920;BME280;59039;52.108;19.942;2023-02-13T07:03:21;102430.77;;;4.81;87.30
60920;BME280;59039;52.108;19.942;2023-02-13T07:05:42;102429.45;;;4.82;87.49
60920;BME280;59039;52.108;19.942;2023-02-13T07:08:42;102431.91;;;4.83;87.55
60920;BME280;59039;52.108;19.942;2023-02-13T07:11:15;102433.29;;;4.85;87.77
60920;BME280;59039;52.108;19.942;2023-02-13T07:16:36;102437.09;;;4.88;88.42
60920;BME280;59039;52.108;19.942;2023-02-13T07:19:18;102436.71;;;4.88;87.59
60920;BME280;59039;52.108;19.942;2023-02-13T07:21:46;102439.90;;;4.89;87.32
60920;BME280;59039;52.108;19.942;2023-02-13T07:27:00;102443.31;;;4.94;87.64
60920;BME280;59039;52.108;19.942;2023-02-13T07:29:51;102440.52;;;4.96;87.44
60920;BME280;59039;52.108;19.942;2023-02-13T07:32:21;102440.42;;;4.98;87.22
60920;BME280;59039;52.108;19.942;2023-02-13T07:34:52;102438.66;;;5.01;88.58
60920;BME280;59039;52.108;19.942;2023-02-13T07:39:56;102453.96;;;5.05;87.79
60920;BME280;59039;52.108;19.942;2023-02-13T07:43:03;102452.27;;;5.06;87.95
60920;BME280;59039;52.108;19.942;2023-02-13T07:45:41;102452.66;;;5.09;87.92
60920;BME280;59039;52.108;19.942;2023-02-13T07:48:11;102450.60;;;5.11;88.04
60920;BME280;59039;52.108;19.942;2023-02-13T07:53:21;102446.16;;;5.14;88.76
60920;BME280;59039;52.108;19.942;2023-02-13T07:56:08;102445.68;;;5.17;88.87
60920;BME280;59039;52.108;19.942;2023-02-13T08:01:31;102446.73;;;5.21;88.80
60920;BME280;59039;52.108;19.942;2023-02-13T08:04:05;102446.83;;;5.23;89.31
60920;BME280;59039;52.108;19.942;2023-02-13T08:06:31;102444.93;;;5.25;89.40
60920;BME280;59039;52.108;19.942;2023-02-13T08:11:55;102435.63;;;5.28;89.41
60920;BME280;59039;52.108;19.942;2023-02-13T08:14:30;102434.10;;;5.30;89.35
60920;BME280;59039;52.108;19.942;2023-02-13T08:16:58;102431.01;;;5.31;89.34
60920;BME280;59039;52.108;19.942;2023-02-13T08:19:29;102421.40;;;5.33;89.60
60920;BME280;59039;52.108;19.942;2023-02-13T08:22:36;102418.79;;;5.35;89.75
60920;BME280;59039;52.108;19.942;2023-02-13T08:25:21;102418.16;;;5.37;89.11
60920;BME280;59039;52.108;19.942;2023-02-13T08:27:58;102417.43;;;5.40;89.36
60920;BME280;59039;52.108;19.942;2023-02-13T08:30:37;102424.03;;;5.42;89.03
60920;BME280;59039;52.108;19.942;2023-02-13T08:33:10;102426.78;;;5.45;89.53
60920;BME280;59039;52.108;19.942;2023-02-13T08:35:48;102423.95;;;5.48;89.64
60920;BME280;59039;52.108;19.942;2023-02-13T08:41:20;102423.07;;;5.54;89.64
60920;BME280;59039;52.108;19.942;2023-02-13T08:43:52;102420.64;;;5.57;89.04
60920;BME280;59039;52.108;19.942;2023-02-13T08:46:26;102418.03;;;5.58;89.01
60920;BME280;59039;52.108;19.942;2023-02-13T08:49:15;102417.89;;;5.61;89.18
60920;BME280;59039;52.108;19.942;2023-02-13T08:52:12;102418.86;;;5.63;88.81
60920;BME280;59039;52.108;19.942;2023-02-13T08:54:39;102411.06;;;5.65;88.62
60920;BME280;59039;52.108;19.942;2023-02-13T08:57:23;102409.33;;;5.67;89.26
60920;BME280;59039;52.108;19.942;2023-02-13T09:02:40;102401.52;;;5.72;88.77
60920;BME280;59039;52.108;19.942;2023-02-13T09:05:11;102395.88;;;5.74;88.66
60920;BME280;59039;52.108;19.942;2023-02-13T09:07:42;102401.14;;;5.77;88.67
60920;BME280;59039;52.108;19.942;2023-02-13T09:10:09;102402.92;;;5.81;88.83
60920;BME280;59039;52.108;19.942;2023-02-13T09:12:57;102402.51;;;5.85;89.08
60920;BME280;59039;52.108;19.942;2023-02-13T09:15:26;102399.23;;;5.90;88.49
60920;BME280;59039;52.108;19.942;2023-02-13T09:17:54;102399.61;;;5.93;87.87
60920;BME280;59039;52.108;19.942;2023-02-13T09:20:25;102407.81;;;5.95;87.80
60920;BME280;59039;52.108;19.942;2023-02-13T09:22:51;102411.76;;;5.95;87.19
60920;BME280;59039;52.108;19.942;2023-02-13T09:27:57;102401.71;;;5.91;86.91
60920;BME280;59039;52.108;19.942;2023-02-13T09:30:26;102406.72;;;5.87;87.14
60920;BME280;59039;52.108;19.942;2023-02-13T09:32:52;102402.92;;;5.84;87.25
60920;BME280;59039;52.108;19.942;2023-02-13T09:35:26;102402.36;;;5.81;87.12
60920;BME280;59039;52.108;19.942;2023-02-13T09:37:54;102404.27;;;5.79;87.53
60920;BME280;59039;52.108;19.942;2023-02-13T09:40:28;102400.85;;;5.75;87.13
60920;BME280;59039;52.108;19.942;2023-02-13T09:43:09;102393.70;;;5.71;86.97
60920;BME280;59039;52.108;19.942;2023-02-13T09:45:48;102394.90;;;5.68;87.24
60920;BME280;59039;52.108;19.942;2023-02-13T09:48:35;102394.08;;;5.66;87.26
60920;BME280;59039;52.108;19.942;2023-02-13T09:51:03;102391.14;;;5.68;87.86
60920;BME280;59039;52.108;19.942;2023-02-13T09:53:29;102389.80;;;5.70;88.30
60920;BME280;59039;52.108;19.942;2023-02-13T09:56:10;102391.14;;;5.71;88.17
60920;BME280;59039;52.108;19.942;2023-02-13T09:58:47;102391.52;;;5.75;88.21
60920;BME280;59039;52.108;19.942;2023-02-13T10:07:32;102399.50;;;5.84;87.95
60920;BME280;59039;52.108;19.942;2023-02-13T10:16:22;102400.73;;;5.88;87.32
60920;BME280;59039;52.108;19.942;2023-02-13T10:22:13;102396.34;;;5.90;88.64
60920;BME280;59039;52.108;19.942;2023-02-13T10:27:43;102395.84;;;5.89;88.15
60920;BME280;59039;52.108;19.942;2023-02-13T10:30:31;102391.30;;;5.90;87.86
60920;BME280;59039;52.108;19.942;2023-02-13T10:33:35;102392.32;;;5.92;87.12
60920;BME280;59039;52.108;19.942;2023-02-13T10:36:25;102391.63;;;5.91;85.75
60920;BME280;59039;52.108;19.942;2023-02-13T10:38:59;102388.20;;;5.91;87.23
60920;BME280;59039;52.108;19.942;2023-02-13T10:41:39;102389.15;;;5.90;87.26
60920;BME280;59039;52.108;19.942;2023-02-13T10:44:33;102390.23;;;5.90;86.71
60920;BME280;59039;52.108;19.942;2023-02-13T10:53:00;102384.38;;;5.88;85.17
60920;BME280;59039;52.108;19.942;2023-02-13T10:58:16;102382.23;;;5.84;85.62
60920;BME280;59039;52.108;19.942;2023-02-13T11:01:24;102380.28;;;5.83;85.77
60920;BME280;59039;52.108;19.942;2023-02-13T11:07:02;102379.04;;;5.83;85.66
60920;BME280;59039;52.108;19.942;2023-02-13T11:09:27;102375.56;;;5.84;86.84
60920;BME280;59039;52.108;19.942;2023-02-13T11:11:54;102379.17;;;5.84;86.10
60920;BME280;59039;52.108;19.942;2023-02-13T11:14:25;102378.20;;;5.86;86.52
60920;BME280;59039;52.108;19.942;2023-02-13T11:17:11;102377.32;;;5.89;87.63
60920;BME280;59039;52.108;19.942;2023-02-13T11:20:37;102376.85;;;5.91;86.94
60920;BME280;59039;52.108;19.942;2023-02-13T11:23:44;102367.09;;;5.93;86.92
60920;BME280;59039;52.108;19.942;2023-02-13T11:26:13;102360.10;;;5.96;86.70
60920;BME280;59039;52.108;19.942;2023-02-13T11:28:58;102359.09;;;5.98;86.15
60920;BME280;59039;52.108;19.942;2023-02-13T11:31:32;102358.41;;;6.01;87.43
60920;BME280;59039;52.108;19.942;2023-02-13T11:34:21;102355.73;;;6.04;86.82
60920;BME280;59039;52.108;19.942;2023-02-13T11:37:18;102356.73;;;6.09;86.56
60920;BME280;59039;52.108;19.942;2023-02-13T11:40:34;102351.09;;;6.14;86.73
60920;BME280;59039;52.108;19.942;2023-02-13T11:42:41;102346.27;;;6.16;85.97
60920;BME280;59039;52.108;19.942;2023-02-13T11:45:27;102344.27;;;6.20;86.76
60920;BME280;59039;52.108;19.942;2023-02-13T11:48:09;102342.67;;;6.23;85.70
60920;BME280;59039;52.108;19.942;2023-02-13T11:50:59;102336.59;;;6.26;86.08
60920;BME280;59039;52.108;19.942;2023-02-13T11:53:50;102336.81;;;6.29;87.25
60920;BME280;59039;52.108;19.942;2023-02-13T11:56:19;102333.70;;;6.30;86.70
60920;BME280;59039;52.108;19.942;2023-02-13T11:58:48;102331.13;;;6.31;85.88
60920;BME280;59039;52.108;19.942;2023-02-13T12:01:52;102333.52;;;6.33;85.78
60920;BME280;59039;52.108;19.942;2023-02-13T12:04:25;102332.94;;;6.34;84.06
60920;BME280;59039;52.108;19.942;2023-02-13T12:07:25;102332.23;;;6.34;84.06
60920;BME280;59039;52.108;19.942;2023-02-13T12:10:10;102330.98;;;6.34;84.19
60920;BME280;59039;52.108;19.942;2023-02-13T12:12:46;102326.23;;;6.35;84.54
60920;BME280;59039;52.108;19.942;2023-02-13T12:15:32;102326.10;;;6.38;86.62
60920;BME280;59039;52.108;19.942;2023-02-13T12:25:13;102323.93;;;6.31;84.45
60920;BME280;59039;52.108;19.942;2023-02-13T12:27:55;102319.92;;;6.32;84.17
60920;BME280;59039;52.108;19.942;2023-02-13T12:39:25;102304.78;;;6.45;85.08
60920;BME280;59039;52.108;19.942;2023-02-13T12:45:20;102309.68;;;6.55;83.80
60920;BME280;59039;52.108;19.942;2023-02-13T12:55:11;102305.18;;;6.61;80.73
60920;BME280;59039;52.108;19.942;2023-02-13T13:03:32;102283.67;;;6.66;81.12
60920;BME280;59039;52.108;19.942;2023-02-13T13:09:32;102281.70;;;6.73;79.59
60920;BME280;59039;52.108;19.942;2023-02-13T13:12:32;102273.63;;;6.75;80.73
60920;BME280;59039;52.108;19.942;2023-02-13T13:15:41;102276.38;;;6.78;81.10
60920;BME280;59039;52.108;19.942;2023-02-13T13:18:30;102280.78;;;6.79;80.46
60920;BME280;59039;52.108;19.942;2023-02-13T13:26:29;102266.56;;;6.86;80.04
60920;BME280;59039;52.108;19.942;2023-02-13T13:29:21;102263.12;;;6.86;81.23
60920;BME280;59039;52.108;19.942;2023-02-13T13:32:22;102265.27;;;6.86;80.91
60920;BME280;59039;52.108;19.942;2023-02-13T13:52:38;102238.10;;;6.69;80.38
60920;BME280;59039;52.108;19.942;2023-02-13T13:56:05;102238.64;;;6.66;81.21
60920;BME280;59039;52.108;19.942;2023-02-13T13:58:50;102232.55;;;6.63;82.13
60920;BME280;59039;52.108;19.942;2023-02-13T14:01:30;102243.48;;;6.60;82.08
60920;BME280;59039;52.108;19.942;2023-02-13T14:04:02;102247.41;;;6.57;80.68
60920;BME280;59039;52.108;19.942;2023-02-13T14:09:42;102251.03;;;6.54;82.09
60920;BME280;59039;52.108;19.942;2023-02-13T14:12:48;102258.50;;;6.52;81.47
60920;BME280;59039;52.108;19.942;2023-02-13T14:18:21;102258.75;;;6.47;81.40
60920;BME280;59039;52.108;19.942;2023-02-13T14:20:58;102260.68;;;6.45;81.40
60920;BME280;59039;52.108;19.942;2023-02-13T14:24:05;102256.80;;;6.43;81.84
60920;BME280;59039;52.108;19.942;2023-02-13T14:29:28;102250.22;;;6.39;81.42
60920;BME280;59039;52.108;19.942;2023-02-13T14:34:51;102257.80;;;6.32;80.93
60920;BME280;59039;52.108;19.942;2023-02-13T14:37:46;102260.98;;;6.30;81.63
60920;BME280;59039;52.108;19.942;2023-02-13T14:46:08;102227.70;;;6.22;83.09
60920;BME280;59039;52.108;19.942;2023-02-13T14:48:44;102216.98;;;6.21;83.77
60920;BME280;59039;52.108;19.942;2023-02-13T14:51:25;102212.08;;;6.22;83.92
60920;BME280;59039;52.108;19.942;2023-02-13T14:53:58;102205.23;;;6.22;84.16
60920;BME280;59039;52.108;19.942;2023-02-13T14:57:24;102215.65;;;6.19;82.32
60920;BME280;59039;52.108;19.942;2023-02-13T14:59:46;102224.27;;;6.16;81.41
60920;BME280;59039;52.108;19.942;2023-02-13T15:02:40;102226.67;;;6.15;82.90
60920;BME280;59039;52.108;19.942;2023-02-13T15:05:12;102234.54;;;6.13;81.78
60920;BME280;59039;52.108;19.942;2023-02-13T15:07:54;102227.92;;;6.12;82.19
60920;BME280;59039;52.108;19.942;2023-02-13T15:10:48;102224.86;;;6.08;81.58
60920;BME280;59039;52.108;19.942;2023-02-13T15:13:35;102223.89;;;6.06;82.27
60920;BME280;59039;52.108;19.942;2023-02-13T15:16:04;102231.13;;;6.05;81.44
60920;BME280;59039;52.108;19.942;2023-02-13T15:18:55;102224.06;;;6.03;81.14
60920;BME280;59039;52.108;19.942;2023-02-13T15:21:26;102224.84;;;6.02;81.30
60920;BME280;59039;52.108;19.942;2023-02-13T15:23:58;102231.38;;;6.00;81.32
60920;BME280;59039;52.108;19.942;2023-02-13T15:26:36;102225.42;;;6.01;81.87
60920;BME280;59039;52.108;19.942;2023-02-13T15:30:14;102224.23;;;5.99;81.48
60920;BME280;59039;52.108;19.942;2023-02-13T15:32:29;102226.27;;;5.98;82.45
60920;BME280;59039;52.108;19.942;2023-02-13T15:34:58;102218.23;;;5.98;82.23
60920;BME280;59039;52.108;19.942;2023-02-13T15:43:49;102207.76;;;5.95;81.70
60920;BME280;59039;52.108;19.942;2023-02-13T15:46:27;102198.02;;;5.95;82.23
60920;BME280;59039;52.108;19.942;2023-02-13T15:49:00;102194.46;;;5.94;81.88
60920;BME280;59039;52.108;19.942;2023-02-13T15:52:29;102194.20;;;5.92;81.52
60920;BME280;59039;52.108;19.942;2023-02-13T15:55:04;102205.66;;;5.90;80.65
60920;BME280;59039;52.108;19.942;2023-02-13T15:57:42;102208.45;;;5.88;81.17
60920;BME280;59039;52.108;19.942;2023-02-13T16:00:23;102203.52;;;5.86;81.57
60920;BME280;59039;52.108;19.942;2023-02-13T16:02:56;102197.50;;;5.83;80.79
60920;BME280;59039;52.108;19.942;2023-02-13T16:05:26;102198.30;;;5.82;81.40
60920;BME280;59039;52.108;19.942;2023-02-13T16:07:57;102213.33;;;5.80;81.73
60920;BME280;59039;52.108;19.942;2023-02-13T16:10:30;102215.61;;;5.78;80.93
60920;BME280;59039;52.108;19.942;2023-02-13T16:13:14;102214.20;;;5.78;81.33
60920;BME280;59039;52.108;19.942;2023-02-13T16:16:17;102219.98;;;5.77;81.51
60920;BME280;59039;52.108;19.942;2023-02-13T16:18:55;102226.86;;;5.76;81.74
60920;BME280;59039;52.108;19.942;2023-02-13T16:21:44;102230.58;;;5.74;81.28
60920;BME280;59039;52.108;19.942;2023-02-13T16:24:23;102226.70;;;5.73;81.28
60920;BME280;59039;52.108;19.942;2023-02-13T16:27:17;102232.92;;;5.70;80.75
60920;BME280;59039;52.108;19.942;2023-02-13T16:30:00;102241.89;;;5.67;80.86
60920;BME280;59039;52.108;19.942;2023-02-13T16:35:38;102251.48;;;5.62;81.25
60920;BME280;59039;52.108;19.942;2023-02-13T16:38:35;102254.48;;;5.63;81.74
60920;BME280;59039;52.108;19.942;2023-02-13T16:44:03;102238.61;;;5.61;80.81
60920;BME280;59039;52.108;19.942;2023-02-13T16:46:40;102237.58;;;5.60;80.88
60920;BME280;59039;52.108;19.942;2023-02-13T16:49:17;102231.88;;;5.59;81.06
60920;BME280;59039;52.108;19.942;2023-02-13T16:55:00;102225.91;;;5.56;80.38
60920;BME280;59039;52.108;19.942;2023-02-13T16:57:59;102225.11;;;5.54;80.65
60920;BME280;59039;52.108;19.942;2023-02-13T17:00:44;102237.19;;;5.54;81.12
60920;BME280;59039;52.108;19.942;2023-02-13T17:05:43;102254.79;;;5.51;81.03
60920;BME280;59039;52.108;19.942;2023-02-13T17:11:21;102261.50;;;5.49;80.65
60920;BME280;59039;52.108;19.942;2023-02-13T17:13:46;102251.83;;;5.49;81.00
60920;BME280;59039;52.108;19.942;2023-02-13T17:19:03;102240.05;;;5.47;81.54
60920;BME280;59039;52.108;19.942;2023-02-13T17:21:58;102239.90;;;5.46;80.79
60920;BME280;59039;52.108;19.942;2023-02-13T17:24:28;102240.95;;;5.43;80.07
60920;BME280;59039;52.108;19.942;2023-02-13T17:27:35;102244.27;;;5.41;80.75
60920;BME280;59039;52.108;19.942;2023-02-13T17:33:32;102246.83;;;5.40;80.29
60920;BME280;59039;52.108;19.942;2023-02-13T17:35:56;102241.39;;;5.41;80.27
60920;BME280;59039;52.108;19.942;2023-02-13T17:38:29;102234.40;;;5.41;80.01
60920;BME280;59039;52.108;19.942;2023-02-13T17:41:01;102236.38;;;5.41;79.48
60920;BME280;59039;52.108;19.942;2023-02-13T17:43:47;102230.28;;;5.41;79.61
60920;BME280;59039;52.108;19.942;2023-02-13T17:46:27;102227.59;;;5.40;79.57
60920;BME280;59039;52.108;19.942;2023-02-13T17:49:24;102232.42;;;5.41;78.56
60920;BME280;59039;52.108;19.942;2023-02-13T17:51:52;102228.12;;;5.41;79.41
60920;BME280;59039;52.108;19.942;2023-02-13T17:54:17;102231.89;;;5.41;79.28
60920;BME280;59039;52.108;19.942;2023-02-13T17:57:13;102230.94;;;5.42;79.61
60920;BME280;59039;52.108;19.942;2023-02-13T17:59:40;102234.25;;;5.40;79.25
60920;BME280;59039;52.108;19.942;2023-02-13T18:02:35;102231.10;;;5.38;78.66
60920;BME280;59039;52.108;19.942;2023-02-13T18:08:02;102226.54;;;5.36;78.09
60920;BME280;59039;52.108;19.942;2023-02-13T18:10:41;102231.60;;;5.36;78.03
60920;BME280;59039;52.108;19.942;2023-02-13T18:15:59;102232.55;;;5.38;78.70
60920;BME280;59039;52.108;19.942;2023-02-13T18:19:05;102238.11;;;5.39;78.86